createdAt,value
2019-03-24T00:00:50.273Z,85.5
2019-03-24T00:01:50.975Z,85.5
2019-03-24T00:02:51.648Z,85.5
2019-03-24T00:03:52.321Z,85.6
2019-03-24T00:04:52.995Z,85.6
2019-03-24T00:05:53.670Z,85.6
2019-03-24T00:06:54.344Z,85.1
2019-03-24T00:07:56.785Z,85.6
2019-03-24T00:08:55.735Z,86.0
2019-03-24T00:09:56.408Z,85.9
2019-03-24T00:10:57.081Z,85.7
2019-03-24T00:11:57.755Z,85.8
2019-03-24T00:12:58.431Z,86.0
2019-03-24T00:13:59.106Z,85.9
2019-03-24T00:14:59.778Z,85.9
2019-03-24T00:16:00.453Z,85.9
2019-03-24T00:17:01.127Z,85.6
2019-03-24T00:18:01.801Z,85.8
2019-03-24T00:19:02.474Z,85.6
2019-03-24T00:20:03.148Z,85.5
2019-03-24T00:21:03.823Z,85.6
2019-03-24T00:22:04.495Z,85.6
2019-03-24T00:23:05.168Z,85.5
2019-03-24T00:24:05.842Z,85.9
2019-03-24T00:25:06.540Z,86.1
2019-03-24T00:26:07.190Z,85.9
2019-03-24T00:27:07.871Z,85.9
2019-03-24T00:28:08.587Z,86.1
2019-03-24T00:29:09.261Z,86.0
2019-03-24T00:30:09.934Z,86.0
2019-03-24T00:31:10.606Z,86.2
2019-03-24T00:32:11.280Z,85.9
2019-03-24T00:33:11.954Z,86.5
2019-03-24T00:34:12.628Z,86.6
2019-03-24T00:35:13.303Z,86.4
2019-03-24T00:36:13.976Z,86.6
2019-03-24T00:37:14.650Z,86.5
2019-03-24T00:38:15.324Z,86.3
2019-03-24T00:39:15.998Z,86.6
2019-03-24T00:40:16.675Z,86.8
2019-03-24T00:41:17.345Z,86.7
2019-03-24T00:42:18.018Z,86.6
2019-03-24T00:43:18.692Z,87.1
2019-03-24T00:44:19.366Z,86.1
2019-03-24T00:45:20.040Z,86.5
2019-03-24T00:46:20.712Z,86.7
2019-03-24T00:47:21.386Z,86.3
2019-03-24T00:48:22.059Z,86.5
2019-03-24T00:49:22.734Z,86.8
2019-03-24T00:50:23.409Z,86.7
2019-03-24T00:51:24.081Z,86.2
2019-03-24T00:52:24.763Z,86.6
2019-03-24T00:53:25.480Z,86.8
2019-03-24T00:54:26.156Z,86.7
2019-03-24T00:55:26.878Z,86.6
2019-03-24T00:56:27.571Z,86.9
2019-03-24T00:57:28.225Z,87.3
2019-03-24T00:58:28.902Z,87.4
2019-03-24T00:59:29.636Z,87.1
2019-03-24T01:00:30.265Z,86.8
2019-03-24T01:01:30.940Z,87.0
2019-03-24T01:02:31.614Z,87.2
2019-03-24T01:03:32.329Z,87.4
2019-03-24T01:04:32.961Z,87.1
2019-03-24T01:05:33.633Z,87.4
2019-03-24T01:06:34.354Z,87.1
2019-03-24T01:07:35.027Z,87.6
2019-03-24T01:08:35.700Z,87.2
2019-03-24T01:09:36.376Z,87.2
2019-03-24T01:10:37.049Z,87.3
2019-03-24T01:11:37.723Z,87.3
2019-03-24T01:12:38.396Z,86.6
2019-03-24T01:13:39.070Z,86.8
2019-03-24T01:14:39.743Z,86.5
2019-03-24T01:15:47.749Z,86.9
2019-03-24T01:16:42.082Z,87.0
2019-03-24T01:17:42.755Z,87.0
2019-03-24T01:18:43.431Z,87.0
2019-03-24T01:19:44.105Z,87.0
2019-03-24T01:20:44.783Z,86.8
2019-03-24T01:21:45.454Z,86.8
2019-03-24T01:22:46.127Z,87.2
2019-03-24T01:23:46.802Z,87.4
2019-03-24T01:24:47.475Z,87.1
2019-03-24T01:25:48.150Z,87.4
2019-03-24T01:26:48.825Z,87.4
2019-03-24T01:27:49.498Z,87.3
2019-03-24T01:28:50.172Z,87.3
2019-03-24T01:29:50.845Z,87.6
2019-03-24T01:30:51.520Z,87.6
2019-03-24T01:31:52.192Z,87.4
2019-03-24T01:32:52.890Z,87.5
2019-03-24T01:33:53.540Z,87.5
2019-03-24T01:34:54.214Z,88.1
2019-03-24T01:35:54.888Z,87.6
2019-03-24T01:36:55.563Z,87.8
2019-03-24T01:37:56.237Z,88.1
2019-03-24T01:38:56.914Z,87.9
2019-03-24T01:39:57.585Z,87.7
2019-03-24T01:40:58.260Z,88.1
2019-03-24T01:41:58.931Z,87.7
2019-03-24T01:42:59.608Z,87.8
2019-03-24T01:44:00.282Z,87.9
2019-03-24T01:45:00.948Z,88.6
2019-03-24T01:46:01.622Z,88.6
2019-03-24T01:47:02.304Z,88.4
2019-03-24T01:48:02.974Z,88.6
2019-03-24T01:49:03.644Z,88.8
2019-03-24T01:50:04.318Z,88.6
2019-03-24T01:51:04.989Z,88.8
2019-03-24T01:52:05.667Z,88.6
2019-03-24T01:53:06.339Z,88.6
2019-03-24T01:54:07.012Z,88.7
2019-03-24T01:55:07.687Z,88.6
2019-03-24T01:56:08.360Z,88.5
2019-03-24T01:57:09.034Z,89.0
2019-03-24T01:58:09.708Z,89.1
2019-03-24T01:59:10.385Z,89.1
2019-03-24T02:00:11.058Z,89.5
2019-03-24T02:01:11.730Z,89.5
2019-03-24T02:02:12.404Z,89.5
2019-03-24T02:03:13.079Z,88.9
2019-03-24T02:04:13.753Z,89.0
2019-03-24T02:05:14.428Z,89.1
2019-03-24T02:06:15.103Z,89.4
2019-03-24T02:07:15.774Z,89.5
2019-03-24T02:08:16.448Z,89.5
2019-03-24T02:09:17.122Z,89.6
2019-03-24T02:10:17.798Z,89.8
2019-03-24T02:11:18.471Z,89.9
2019-03-24T02:12:19.144Z,89.9
2019-03-24T02:13:19.819Z,90.3
2019-03-24T02:14:20.494Z,90.2
2019-03-24T02:15:21.170Z,90.3
2019-03-24T02:16:21.848Z,90.3
2019-03-24T02:17:22.564Z,90.3
2019-03-24T02:18:23.234Z,90.5
2019-03-24T02:19:23.908Z,90.4
2019-03-24T02:20:24.583Z,90.9
2019-03-24T02:21:25.258Z,90.9
2019-03-24T02:22:25.979Z,90.6
2019-03-24T02:23:26.691Z,90.8
2019-03-24T02:24:27.326Z,91.1
2019-03-24T02:25:28.001Z,90.9
2019-03-24T02:26:28.673Z,91.2
2019-03-24T02:27:29.348Z,91.2
2019-03-24T02:28:30.022Z,91.2
2019-03-24T02:29:30.696Z,91.4
2019-03-24T02:30:31.420Z,91.5
2019-03-24T02:31:32.099Z,91.7
2019-03-24T02:32:32.816Z,91.6
2019-03-24T02:33:33.490Z,91.5
2019-03-24T02:34:34.165Z,91.5
2019-03-24T02:35:34.865Z,91.6
2019-03-24T02:36:35.540Z,91.7
2019-03-24T02:37:36.209Z,91.6
2019-03-24T02:38:36.884Z,91.7
2019-03-24T02:39:37.557Z,91.4
2019-03-24T02:40:38.230Z,91.2
2019-03-24T02:41:38.903Z,91.5
2019-03-24T02:42:39.580Z,91.6
2019-03-24T02:43:40.252Z,91.4
2019-03-24T02:44:40.965Z,91.6
2019-03-24T02:45:41.593Z,91.5
2019-03-24T02:46:42.268Z,91.6
2019-03-24T02:47:42.949Z,92.0
2019-03-24T02:48:43.613Z,92.0
2019-03-24T02:49:44.294Z,92.0
2019-03-24T02:50:44.963Z,91.9
2019-03-24T02:51:45.697Z,92.0
2019-03-24T02:52:46.357Z,92.3
2019-03-24T02:53:47.033Z,92.4
2019-03-24T02:54:47.704Z,92.6
2019-03-24T02:55:48.377Z,92.7
2019-03-24T02:56:49.106Z,92.3
2019-03-24T02:57:49.784Z,92.4
2019-03-24T02:58:50.448Z,92.4
2019-03-24T02:59:51.126Z,92.1
2019-03-24T03:00:51.797Z,92.8
2019-03-24T03:01:52.480Z,92.7
2019-03-24T03:02:53.143Z,92.6
2019-03-24T03:03:53.819Z,92.9
2019-03-24T03:04:54.495Z,92.7
2019-03-24T03:05:55.169Z,92.6
2019-03-24T03:06:55.890Z,93.0
2019-03-24T03:07:56.563Z,93.1
2019-03-24T03:08:57.237Z,92.9
2019-03-24T03:09:57.911Z,92.9
2019-03-24T03:10:58.582Z,93.0
2019-03-24T03:11:59.256Z,93.1
2019-03-24T03:12:59.929Z,93.2
2019-03-24T03:14:00.608Z,92.9
2019-03-24T03:15:01.278Z,93.0
2019-03-24T03:16:01.952Z,93.4
2019-03-24T03:17:02.631Z,93.4
2019-03-24T03:18:03.301Z,93.2
2019-03-24T03:19:03.989Z,93.8
2019-03-24T03:20:04.698Z,93.8
2019-03-24T03:21:05.373Z,93.8
2019-03-24T03:22:06.048Z,93.6
2019-03-24T03:23:06.719Z,93.6
2019-03-24T03:24:07.399Z,93.7
2019-03-24T03:25:08.070Z,94.0
2019-03-24T03:26:08.789Z,94.6
2019-03-24T03:27:09.485Z,94.4
2019-03-24T03:28:10.137Z,94.6
2019-03-24T03:29:10.819Z,94.4
2019-03-24T03:30:11.532Z,94.6
2019-03-24T03:31:12.206Z,95.0
2019-03-24T03:32:12.880Z,94.9
2019-03-24T03:33:13.568Z,94.8
2019-03-24T03:34:14.278Z,95.0
2019-03-24T03:35:14.955Z,94.6
2019-03-24T03:36:15.638Z,94.6
2019-03-24T03:37:16.297Z,94.3
2019-03-24T03:38:16.971Z,93.9
2019-03-24T03:39:17.640Z,93.2
2019-03-24T03:40:18.314Z,93.0
2019-03-24T03:41:19.007Z,93.2
2019-03-24T03:42:19.658Z,93.4
2019-03-24T03:43:20.343Z,92.3
2019-03-24T03:44:21.057Z,91.9
2019-03-24T03:45:21.771Z,92.1
2019-03-24T03:46:22.443Z,91.5
2019-03-24T03:47:23.117Z,91.3
2019-03-24T03:48:23.791Z,90.6
2019-03-24T03:49:24.467Z,90.3
2019-03-24T03:50:25.137Z,90.6
2019-03-24T03:51:25.813Z,90.3
2019-03-24T03:52:26.490Z,89.6
2019-03-24T03:53:27.162Z,88.9
2019-03-24T03:54:27.867Z,89.1
2019-03-24T03:55:28.514Z,88.4
2019-03-24T03:56:29.187Z,88.3
2019-03-24T03:57:29.860Z,88.3
2019-03-24T03:58:30.535Z,88.0
2019-03-24T03:59:31.256Z,88.0
2019-03-24T04:00:31.928Z,87.8
2019-03-24T04:01:32.603Z,87.9
2019-03-24T04:02:33.276Z,88.2
2019-03-24T04:03:33.949Z,87.3
2019-03-24T04:04:34.624Z,87.8
2019-03-24T04:05:35.342Z,87.8
2019-03-24T04:06:36.018Z,87.2
2019-03-24T04:07:36.692Z,87.3
2019-03-24T04:08:37.362Z,87.2
2019-03-24T04:09:38.036Z,87.1
2019-03-24T04:10:38.709Z,86.9
2019-03-24T04:11:39.382Z,86.8
2019-03-24T04:12:40.066Z,86.5
2019-03-24T04:13:40.730Z,86.7
2019-03-24T04:14:41.403Z,86.9
2019-03-24T04:15:42.123Z,86.3
2019-03-24T04:16:42.796Z,86.5
2019-03-24T04:17:43.471Z,86.2
2019-03-24T04:18:44.143Z,85.8
2019-03-24T04:19:44.817Z,85.9
2019-03-24T04:20:45.491Z,85.6
2019-03-24T04:21:46.162Z,85.6
2019-03-24T04:22:46.839Z,85.2
2019-03-24T04:23:47.516Z,85.1
2019-03-24T04:24:48.231Z,84.5
2019-03-24T04:25:48.902Z,84.8
2019-03-24T04:26:49.577Z,84.7
2019-03-24T04:27:50.254Z,84.1
2019-03-24T04:28:50.926Z,84.3
2019-03-24T04:29:51.598Z,84.0
2019-03-24T04:30:52.272Z,83.9
2019-03-24T04:31:52.941Z,83.7
2019-03-24T04:32:53.660Z,83.9
2019-03-24T04:33:54.339Z,83.9
2019-03-24T04:34:55.010Z,84.2
2019-03-24T04:35:55.676Z,84.0
2019-03-24T04:36:56.348Z,84.2
2019-03-24T04:37:57.020Z,84.7
2019-03-24T04:38:57.694Z,84.2
2019-03-24T04:39:58.364Z,84.5
2019-03-24T04:40:59.035Z,84.1
2019-03-24T04:41:59.723Z,84.2
2019-03-24T04:43:00.378Z,84.3
2019-03-24T04:44:01.052Z,84.2
2019-03-24T04:45:01.725Z,83.9
2019-03-24T04:46:02.402Z,83.7
2019-03-24T04:47:03.072Z,83.7
2019-03-24T04:48:03.747Z,83.4
2019-03-24T04:49:04.414Z,83.8
2019-03-24T04:50:05.095Z,83.9
2019-03-24T04:51:05.762Z,83.7
2019-03-24T04:52:06.435Z,83.5
2019-03-24T04:53:07.108Z,83.5
2019-03-24T04:54:07.781Z,83.3
2019-03-24T04:55:08.457Z,83.2
2019-03-24T04:56:09.127Z,83.7
2019-03-24T04:57:09.827Z,83.2
2019-03-24T04:58:10.473Z,83.4
2019-03-24T04:59:11.146Z,83.9
2019-03-24T05:00:11.818Z,83.7
2019-03-24T05:01:12.491Z,84.0
2019-03-24T05:02:13.168Z,84.1
2019-03-24T05:03:13.837Z,84.0
2019-03-24T05:04:14.517Z,84.1
2019-03-24T05:05:15.186Z,84.1
2019-03-24T05:06:15.860Z,83.9
2019-03-24T05:07:16.534Z,84.2
2019-03-24T05:08:17.208Z,84.2
2019-03-24T05:09:17.882Z,84.2
2019-03-24T05:10:18.556Z,84.3
2019-03-24T05:11:19.232Z,84.3
2019-03-24T05:12:19.903Z,84.0
2019-03-24T05:13:20.577Z,84.2
2019-03-24T05:14:21.249Z,84.3
2019-03-24T05:15:21.925Z,84.2
2019-03-24T05:16:22.596Z,84.5
2019-03-24T05:17:27.276Z,84.3
2019-03-24T05:18:24.936Z,84.2
2019-03-24T05:19:25.599Z,84.5
2019-03-24T05:20:26.273Z,84.2
2019-03-24T05:21:26.951Z,84.0
2019-03-24T05:22:27.623Z,85.0
2019-03-24T05:23:28.296Z,84.2
2019-03-24T05:24:28.969Z,84.3
2019-03-24T05:25:29.644Z,84.3
2019-03-24T05:26:30.316Z,84.7
2019-03-24T05:27:30.991Z,84.7
2019-03-24T05:28:31.714Z,84.8
2019-03-24T05:29:32.391Z,84.7
2019-03-24T05:30:33.114Z,84.8
2019-03-24T05:31:33.789Z,84.7
2019-03-24T05:32:34.464Z,84.8
2019-03-24T05:33:35.138Z,84.5
2019-03-24T05:34:35.815Z,85.0
2019-03-24T05:35:36.489Z,84.9
2019-03-24T05:36:37.163Z,84.8
2019-03-24T05:37:37.841Z,84.9
2019-03-24T05:38:38.562Z,85.4
2019-03-24T05:39:39.235Z,85.4
2019-03-24T05:40:39.910Z,85.4
2019-03-24T05:41:40.587Z,85.4
2019-03-24T05:42:41.261Z,85.4
2019-03-24T05:43:41.937Z,85.2
2019-03-24T05:44:42.617Z,85.2
2019-03-24T05:45:43.288Z,86.0
2019-03-24T05:46:43.967Z,85.9
2019-03-24T05:47:44.640Z,85.8
2019-03-24T05:48:45.314Z,85.8
2019-03-24T05:49:46.001Z,85.8
2019-03-24T05:50:46.714Z,85.7
2019-03-24T05:51:47.389Z,86.0
2019-03-24T05:52:48.069Z,85.9
2019-03-24T05:53:48.789Z,86.1
2019-03-24T05:54:49.466Z,86.1
2019-03-24T05:55:50.141Z,86.0
2019-03-24T05:56:50.815Z,86.3
2019-03-24T05:57:51.493Z,86.1
2019-03-24T05:58:52.167Z,85.8
2019-03-24T05:59:52.842Z,85.8
2019-03-24T06:00:53.519Z,85.8
2019-03-24T06:01:54.193Z,85.9
2019-03-24T06:02:54.867Z,85.6
2019-03-24T06:03:55.546Z,85.6
2019-03-24T06:04:56.221Z,85.7
2019-03-24T06:05:56.897Z,85.7
2019-03-24T06:06:57.621Z,85.8
2019-03-24T06:07:58.298Z,86.1
2019-03-24T06:08:58.974Z,86.2
2019-03-24T06:09:59.651Z,85.8
2019-03-24T06:11:00.327Z,86.1
2019-03-24T06:12:01.004Z,85.8
2019-03-24T06:13:01.679Z,85.9
2019-03-24T06:14:02.355Z,86.3
2019-03-24T06:15:03.030Z,86.2
2019-03-24T06:16:03.706Z,86.3
2019-03-24T06:17:04.382Z,86.3
2019-03-24T06:18:05.058Z,86.0
2019-03-24T06:19:05.734Z,86.2
2019-03-24T06:20:06.410Z,86.6
2019-03-24T06:21:07.084Z,86.0
2019-03-24T06:22:07.761Z,86.3
2019-03-24T06:23:08.438Z,86.0
2019-03-24T06:24:09.117Z,86.6
2019-03-24T06:25:09.791Z,86.5
2019-03-24T06:26:10.515Z,86.4
2019-03-24T06:27:11.239Z,86.7
2019-03-24T06:28:11.917Z,86.3
2019-03-24T06:29:12.639Z,86.0
2019-03-24T06:30:13.318Z,86.1
2019-03-24T06:31:13.990Z,86.2
2019-03-24T06:32:14.667Z,85.7
2019-03-24T06:33:15.346Z,85.8
2019-03-24T06:34:16.021Z,85.4
2019-03-24T06:35:16.699Z,85.4
2019-03-24T06:36:17.376Z,85.3
2019-03-24T06:37:18.052Z,85.4
2019-03-24T06:38:18.730Z,85.0
2019-03-24T06:39:19.438Z,85.4
2019-03-24T06:40:20.136Z,85.3
2019-03-24T06:41:20.812Z,85.3
2019-03-24T06:42:21.489Z,85.3
2019-03-24T06:43:22.167Z,85.5
2019-03-24T06:44:22.850Z,85.2
2019-03-24T06:45:28.330Z,85.3
2019-03-24T06:46:25.190Z,85.3
2019-03-24T06:47:25.870Z,85.4
2019-03-24T06:48:26.546Z,85.8
2019-03-24T06:49:27.220Z,85.8
2019-03-24T06:50:27.899Z,85.8
2019-03-24T06:51:28.577Z,86.1
2019-03-24T06:52:29.300Z,85.8
2019-03-24T06:53:29.976Z,85.7
2019-03-24T06:54:30.653Z,85.7
2019-03-24T06:55:31.349Z,85.7
2019-03-24T06:56:32.056Z,85.9
2019-03-24T06:57:32.733Z,85.4
2019-03-24T06:58:33.413Z,85.1
2019-03-24T06:59:34.138Z,85.4
2019-03-24T07:00:34.815Z,85.4
2019-03-24T07:01:35.494Z,85.1
2019-03-24T07:02:36.219Z,84.6
2019-03-24T07:03:36.899Z,84.7
2019-03-24T07:04:37.575Z,84.9
2019-03-24T07:05:38.252Z,84.4
2019-03-24T07:06:38.931Z,84.3
2019-03-24T07:07:39.607Z,84.3
2019-03-24T07:08:40.284Z,84.3
2019-03-24T07:09:40.961Z,84.4
2019-03-24T07:10:41.639Z,84.2
2019-03-24T07:11:42.387Z,84.6
2019-03-24T07:12:43.081Z,84.6
2019-03-24T07:13:43.717Z,84.4
2019-03-24T07:14:44.392Z,84.3
2019-03-24T07:15:45.068Z,84.3
2019-03-24T07:16:45.748Z,83.6
2019-03-24T07:17:46.474Z,83.8
2019-03-24T07:18:47.154Z,83.6
2019-03-24T07:19:47.880Z,83.4
2019-03-24T07:20:48.558Z,83.4
2019-03-24T07:21:49.236Z,82.7
2019-03-24T07:22:49.912Z,82.9
2019-03-24T07:23:50.597Z,83.0
2019-03-24T07:24:51.266Z,82.7
2019-03-24T07:25:51.944Z,82.6
2019-03-24T07:26:52.625Z,83.2
2019-03-24T07:27:53.306Z,83.2
2019-03-24T07:28:53.983Z,82.6
2019-03-24T07:29:54.662Z,82.7
2019-03-24T07:30:55.341Z,82.6
2019-03-24T07:31:56.019Z,81.8
2019-03-24T07:32:56.698Z,81.9
2019-03-24T07:33:57.376Z,82.0
2019-03-24T07:34:58.053Z,81.4
2019-03-24T07:35:58.778Z,81.3
2019-03-24T07:36:59.459Z,81.4
2019-03-24T07:38:00.138Z,81.4
2019-03-24T07:39:00.817Z,81.4
2019-03-24T07:40:01.496Z,81.2
2019-03-24T07:41:02.173Z,81.5
2019-03-24T07:42:02.855Z,80.9
2019-03-24T07:43:03.540Z,80.8
2019-03-24T07:44:04.213Z,80.8
2019-03-24T07:45:04.892Z,80.8
2019-03-24T07:46:05.571Z,80.5
2019-03-24T07:47:06.251Z,80.4
2019-03-24T07:48:06.933Z,80.3
2019-03-24T07:49:07.612Z,80.2
2019-03-24T07:50:08.291Z,80.2
2019-03-24T07:51:08.972Z,80.0
2019-03-24T07:52:09.651Z,79.7
2019-03-24T07:53:11.181Z,79.2
2019-03-24T07:54:11.883Z,79.2
2019-03-24T07:55:12.557Z,79.2
2019-03-24T07:56:13.242Z,78.6
2019-03-24T07:57:13.919Z,78.7
2019-03-24T07:58:14.598Z,78.9
2019-03-24T07:59:15.278Z,78.6
2019-03-24T08:00:15.957Z,78.4
2019-03-24T08:01:16.638Z,78.3
2019-03-24T08:02:17.318Z,78.6
2019-03-24T08:03:17.999Z,78.4
2019-03-24T08:04:18.727Z,78.3
2019-03-24T08:05:19.409Z,78.1
2019-03-24T08:06:20.088Z,78.0
2019-03-24T08:07:20.769Z,78.1
2019-03-24T08:08:21.452Z,78.0
2019-03-24T08:09:22.128Z,78.1
2019-03-24T08:10:22.807Z,78.2
2019-03-24T08:11:23.486Z,78.0
2019-03-24T08:12:24.166Z,78.1
2019-03-24T08:13:24.847Z,78.0
2019-03-24T08:14:25.529Z,78.2
2019-03-24T08:15:26.208Z,77.7
2019-03-24T08:16:26.890Z,77.9
2019-03-24T08:17:27.568Z,77.5
2019-03-24T08:18:30.163Z,77.3
2019-03-24T08:19:29.018Z,77.5
2019-03-24T08:20:29.700Z,77.5
2019-03-24T08:21:30.381Z,77.5
2019-03-24T08:22:31.062Z,77.6
2019-03-24T08:23:31.741Z,77.7
2019-03-24T08:24:32.421Z,77.4
2019-03-24T08:25:33.103Z,77.1
2019-03-24T08:26:33.785Z,77.1
2019-03-24T08:27:34.511Z,77.6
2019-03-24T08:28:35.192Z,77.5
2019-03-24T08:29:35.872Z,77.2
2019-03-24T08:30:36.548Z,77.1
2019-03-24T08:31:37.229Z,76.7
2019-03-24T08:32:37.910Z,76.6
2019-03-24T08:33:38.591Z,76.9
2019-03-24T08:34:39.270Z,76.6
2019-03-24T08:35:39.957Z,76.4
2019-03-24T08:36:40.634Z,76.3
2019-03-24T08:37:41.314Z,76.3
2019-03-24T08:38:41.994Z,76.3
2019-03-24T08:39:42.673Z,76.4
2019-03-24T08:40:43.355Z,76.3
2019-03-24T08:41:44.035Z,76.5
2019-03-24T08:42:44.717Z,76.2
2019-03-24T08:43:45.399Z,76.3
2019-03-24T08:44:46.077Z,76.7
2019-03-24T08:45:46.757Z,77.2
2019-03-24T08:46:47.467Z,77.1
2019-03-24T08:47:48.168Z,77.1
2019-03-24T08:48:48.847Z,76.9
2019-03-24T08:49:49.554Z,77.1
2019-03-24T08:50:50.259Z,77.1
2019-03-24T08:51:51.322Z,77.1
2019-03-24T08:52:51.977Z,77.4
2019-03-24T08:53:52.659Z,77.6
2019-03-24T08:54:53.340Z,77.6
2019-03-24T08:55:54.022Z,77.5
2019-03-24T08:56:54.704Z,77.6
2019-03-24T08:57:55.384Z,77.6
2019-03-24T08:58:56.062Z,77.3
2019-03-24T08:59:56.742Z,77.6
2019-03-24T09:00:57.424Z,77.6
2019-03-24T09:01:58.105Z,77.5
2019-03-24T09:02:58.784Z,77.6
2019-03-24T09:03:59.470Z,77.6
2019-03-24T09:05:00.330Z,77.5
2019-03-24T09:06:00.964Z,77.4
2019-03-24T09:07:01.644Z,77.6
2019-03-24T09:08:02.354Z,77.4
2019-03-24T09:09:03.057Z,77.6
2019-03-24T09:10:03.740Z,77.5
2019-03-24T09:11:04.420Z,77.4
2019-03-24T09:12:05.099Z,77.7
2019-03-24T09:13:05.779Z,78.3
2019-03-24T09:14:06.460Z,78.2
2019-03-24T09:15:07.141Z,78.3
2019-03-24T09:16:07.818Z,78.4
2019-03-24T09:17:08.496Z,78.4
2019-03-24T09:18:09.175Z,79.1
2019-03-24T09:19:09.862Z,79.4
2019-03-24T09:20:10.537Z,79.1
2019-03-24T09:21:11.218Z,78.7
2019-03-24T09:22:11.904Z,79.0
2019-03-24T09:23:12.625Z,78.8
2019-03-24T09:24:13.303Z,78.6
2019-03-24T09:25:13.986Z,78.7
2019-03-24T09:26:14.667Z,79.0
2019-03-24T09:27:15.348Z,78.5
2019-03-24T09:28:16.029Z,78.9
2019-03-24T09:29:16.708Z,79.1
2019-03-24T09:30:17.390Z,78.8
2019-03-24T09:31:18.070Z,79.3
2019-03-24T09:32:18.798Z,78.9
2019-03-24T09:33:19.478Z,79.2
2019-03-24T09:34:20.160Z,79.2
2019-03-24T09:35:20.840Z,79.1
2019-03-24T09:36:21.519Z,79.1
2019-03-24T09:37:22.200Z,78.7
2019-03-24T09:38:22.928Z,78.8
2019-03-24T09:39:23.611Z,79.0
2019-03-24T09:40:24.291Z,78.5
2019-03-24T09:41:24.996Z,78.1
2019-03-24T09:42:25.653Z,77.6
2019-03-24T09:43:26.337Z,77.4
2019-03-24T09:44:27.015Z,76.9
2019-03-24T09:45:27.726Z,76.4
2019-03-24T09:46:28.422Z,76.2
2019-03-24T09:47:29.103Z,75.9
2019-03-24T09:48:29.784Z,75.9
2019-03-24T09:49:30.466Z,76.1
2019-03-24T09:50:31.144Z,75.7
2019-03-24T09:51:31.827Z,75.2
2019-03-24T09:52:32.504Z,75.0
2019-03-24T09:53:33.187Z,75.0
2019-03-24T09:54:33.869Z,74.7
2019-03-24T09:55:34.547Z,74.9
2019-03-24T09:56:35.229Z,74.9
2019-03-24T09:57:35.909Z,74.6
2019-03-24T09:58:36.592Z,74.9
2019-03-24T09:59:37.271Z,74.7
2019-03-24T10:00:37.951Z,74.0
2019-03-24T10:01:38.631Z,74.5
2019-03-24T10:02:39.312Z,74.1
2019-03-24T10:03:39.995Z,74.8
2019-03-24T10:04:40.675Z,74.5
2019-03-24T10:05:41.357Z,73.9
2019-03-24T10:06:42.037Z,74.7
2019-03-24T10:07:42.717Z,74.5
2019-03-24T10:08:47.320Z,74.6
2019-03-24T10:09:45.070Z,74.7
2019-03-24T10:10:45.753Z,74.7
2019-03-24T10:11:46.434Z,74.3
2019-03-24T10:12:47.115Z,74.2
2019-03-24T10:13:47.795Z,74.1
2019-03-24T10:14:48.474Z,74.0
2019-03-24T10:15:49.158Z,73.9
2019-03-24T10:16:49.840Z,73.7
2019-03-24T10:17:50.520Z,74.2
2019-03-24T10:18:51.199Z,73.9
2019-03-24T10:19:51.879Z,74.0
2019-03-24T10:20:52.562Z,73.6
2019-03-24T10:21:53.244Z,73.3
2019-03-24T10:22:53.926Z,73.4
2019-03-24T10:23:54.607Z,73.2
2019-03-24T10:24:55.287Z,73.5
2019-03-24T10:25:55.970Z,73.5
2019-03-24T10:26:56.700Z,73.3
2019-03-24T10:27:57.338Z,73.5
2019-03-24T10:28:58.019Z,73.1
2019-03-24T10:29:58.698Z,72.8
2019-03-24T10:30:59.381Z,72.8
2019-03-24T10:32:00.060Z,73.2
2019-03-24T10:33:00.743Z,72.5
2019-03-24T10:34:01.426Z,72.4
2019-03-24T10:35:02.106Z,72.5
2019-03-24T10:36:02.836Z,72.1
2019-03-24T10:37:03.529Z,71.6
2019-03-24T10:38:04.210Z,71.5
2019-03-24T10:39:04.891Z,70.9
2019-03-24T10:40:05.574Z,70.8
2019-03-24T10:41:06.254Z,70.9
2019-03-24T10:42:06.936Z,70.5
2019-03-24T10:43:07.620Z,70.3
2019-03-24T10:44:08.300Z,70.5
2019-03-24T10:45:08.981Z,70.0
2019-03-24T10:46:09.711Z,70.3
2019-03-24T10:47:10.393Z,70.4
2019-03-24T10:48:11.074Z,70.6
2019-03-24T10:49:11.758Z,71.3
2019-03-24T10:50:14.327Z,71.4
2019-03-24T10:51:13.164Z,71.1
2019-03-24T10:52:13.846Z,71.3
2019-03-24T10:53:14.527Z,70.9
2019-03-24T10:54:15.209Z,70.8
2019-03-24T10:55:15.891Z,70.5
2019-03-24T10:56:16.574Z,70.6
2019-03-24T10:57:17.257Z,70.5
2019-03-24T10:58:17.938Z,70.5
2019-03-24T10:59:18.621Z,70.6
2019-03-24T11:00:19.323Z,70.3
2019-03-24T11:01:19.986Z,70.5
2019-03-24T11:02:20.671Z,70.1
2019-03-24T11:03:21.353Z,70.1
2019-03-24T11:04:22.036Z,70.4
2019-03-24T11:05:22.714Z,70.2
2019-03-24T11:06:23.404Z,70.6
2019-03-24T11:07:24.078Z,71.1
2019-03-24T11:08:24.759Z,70.7
2019-03-24T11:09:25.443Z,70.4
2019-03-24T11:10:26.126Z,71.1
2019-03-24T11:11:26.808Z,70.8
2019-03-24T11:12:27.488Z,70.2
2019-03-24T11:13:28.180Z,70.5
2019-03-24T11:14:28.862Z,70.8
2019-03-24T11:15:29.592Z,71.2
2019-03-24T11:16:30.274Z,71.4
2019-03-24T11:17:30.957Z,71.4
2019-03-24T11:18:31.641Z,72.1
2019-03-24T11:19:35.871Z,71.9
2019-03-24T11:20:34.045Z,72.3
2019-03-24T11:21:34.726Z,72.6
2019-03-24T11:22:35.410Z,72.3
2019-03-24T11:23:36.141Z,73.3
2019-03-24T11:24:36.825Z,73.3
2019-03-24T11:25:37.507Z,73.5
2019-03-24T11:26:38.188Z,73.1
2019-03-24T11:27:38.870Z,73.0
2019-03-24T11:28:39.550Z,73.3
2019-03-24T11:29:40.233Z,72.8
2019-03-24T11:30:40.914Z,72.5
2019-03-24T11:31:41.596Z,72.6
2019-03-24T11:32:42.279Z,72.1
2019-03-24T11:33:43.010Z,71.6
2019-03-24T11:34:43.690Z,71.3
2019-03-24T11:35:44.373Z,71.3
2019-03-24T11:36:45.058Z,70.3
2019-03-24T11:37:45.737Z,70.9
2019-03-24T11:38:46.418Z,71.4
2019-03-24T11:39:47.100Z,72.1
2019-03-24T11:40:47.782Z,72.3
2019-03-24T11:41:48.468Z,72.6
2019-03-24T11:42:49.147Z,72.5
2019-03-24T11:43:49.829Z,72.4
2019-03-24T11:44:50.510Z,72.4
2019-03-24T11:45:51.191Z,72.5
2019-03-24T11:46:51.875Z,72.9
2019-03-24T11:47:52.556Z,73.0
2019-03-24T11:48:53.244Z,72.6
2019-03-24T11:49:53.921Z,72.4
2019-03-24T11:50:54.601Z,72.6
2019-03-24T11:51:55.333Z,72.6
2019-03-24T11:52:56.014Z,72.5
2019-03-24T11:53:56.746Z,72.3
2019-03-24T11:54:57.475Z,73.0
2019-03-24T11:55:58.161Z,73.2
2019-03-24T11:56:58.842Z,73.2
2019-03-24T11:58:05.798Z,73.5
2019-03-24T11:59:01.197Z,73.7
2019-03-24T12:00:01.888Z,73.6
2019-03-24T12:01:02.610Z,73.4
2019-03-24T12:02:03.294Z,73.4
2019-03-24T12:03:03.978Z,73.7
2019-03-24T12:04:04.657Z,74.5
2019-03-24T12:05:05.338Z,74.1
2019-03-24T12:06:13.844Z,74.2
2019-03-24T12:07:07.691Z,74.2
2019-03-24T12:08:08.373Z,74.9
2019-03-24T12:09:09.055Z,74.8
2019-03-24T12:10:09.735Z,75.1
2019-03-24T12:11:10.417Z,75.3
2019-03-24T12:12:11.096Z,75.3
2019-03-24T12:13:11.777Z,75.4
2019-03-24T12:14:12.457Z,76.2
2019-03-24T12:15:13.188Z,76.1
2019-03-24T12:16:13.871Z,76.3
2019-03-24T12:17:14.558Z,76.3
2019-03-24T12:18:15.237Z,76.3
2019-03-24T12:19:15.915Z,76.2
2019-03-24T12:20:16.599Z,76.0
2019-03-24T12:21:17.276Z,76.3
2019-03-24T12:22:17.956Z,76.4
2019-03-24T12:23:20.934Z,76.3
2019-03-24T12:24:20.309Z,76.6
2019-03-24T12:25:20.989Z,76.3
2019-03-24T12:26:21.673Z,76.8
2019-03-24T12:27:22.350Z,76.8
2019-03-24T12:28:23.040Z,76.7
2019-03-24T12:29:23.762Z,76.3
2019-03-24T12:30:24.443Z,76.4
2019-03-24T12:31:25.124Z,76.5
2019-03-24T12:32:25.849Z,76.5
2019-03-24T12:33:26.522Z,76.6
2019-03-24T12:34:27.179Z,76.3
2019-03-24T12:35:27.907Z,76.6
2019-03-24T12:36:28.586Z,76.2
2019-03-24T12:37:29.268Z,76.8
2019-03-24T12:38:29.949Z,76.2
2019-03-24T12:39:30.628Z,75.9
2019-03-24T12:40:31.308Z,75.8
2019-03-24T12:41:31.988Z,75.7
2019-03-24T12:42:32.671Z,75.3
2019-03-24T12:43:33.353Z,75.0
2019-03-24T12:44:34.033Z,75.2
2019-03-24T12:45:34.764Z,75.5
2019-03-24T12:46:35.444Z,76.0
2019-03-24T12:47:36.127Z,75.8
2019-03-24T12:48:36.804Z,75.8
2019-03-24T12:49:37.487Z,75.9
2019-03-24T12:50:38.168Z,75.7
2019-03-24T12:51:38.847Z,75.7
2019-03-24T12:52:39.529Z,75.8
2019-03-24T12:53:40.211Z,75.8
2019-03-24T12:54:40.891Z,75.6
2019-03-24T12:55:41.574Z,75.8
2019-03-24T12:56:42.254Z,75.5
2019-03-24T12:57:44.174Z,76.0
2019-03-24T12:58:44.605Z,75.9
2019-03-24T12:59:45.284Z,76.0
2019-03-24T13:00:45.967Z,75.8
2019-03-24T13:01:46.644Z,75.9
2019-03-24T13:02:47.324Z,75.8
2019-03-24T13:03:48.005Z,76.1
2019-03-24T13:04:48.684Z,75.8
2019-03-24T13:05:49.364Z,76.1
2019-03-24T13:06:50.042Z,76.1
2019-03-24T13:07:50.728Z,76.5
2019-03-24T13:08:51.402Z,77.0
2019-03-24T13:09:52.084Z,77.3
2019-03-24T13:10:52.764Z,77.6
2019-03-24T13:11:53.444Z,77.3
2019-03-24T13:12:54.123Z,77.7
2019-03-24T13:13:54.807Z,77.7
2019-03-24T13:14:55.485Z,77.5
2019-03-24T13:15:56.219Z,77.7
2019-03-24T13:16:56.865Z,77.7
2019-03-24T13:17:57.541Z,78.2
2019-03-24T13:18:58.219Z,78.3
2019-03-24T13:19:58.945Z,78.3
2019-03-24T13:20:59.626Z,78.3
2019-03-24T13:22:00.309Z,78.2
2019-03-24T13:23:00.986Z,78.4
2019-03-24T13:24:01.662Z,78.1
2019-03-24T13:25:02.341Z,78.3
2019-03-24T13:26:03.022Z,78.3
2019-03-24T13:27:03.707Z,77.4
2019-03-24T13:28:04.429Z,77.6